PWSweather.com
Personal Weather Stations
Station Observations
KJ4AJP
Beautiful Downtown Gardner, Martin, TN 38237

Beautiful Downtown GardnerMartin, TN 38237

Lat: 36.358, Lon: -88.8994

Elevation: 384.3

Station Type: TP1080WC

http://weather.mambm.com/

High Low Average
Temperature 94.8°F34.9°C 69.1°F20.6°C 83.3°F28.5°C
Dew Point 85.2°F29.6°C 68.8°F20.4°C 78.5°F25.8°C
Winds 12.1 mph 19.5 kmh Calm Calm 3.0 mph SSW4.8 kmh SSW
Wind Gusts 19.7 mph31.7 kmh 3.1 mph5.0 kmh 10.0 mph16.1 kmh
Humidity 99% 66% 87%
Pressure 29.99 in1015.6 mb 29.85 in1010.8 mb -
Precipitation 0.59 in15.0 mm - -
Hour Temp Dew Point Humidity Winds Wind Gusts Pressure Precip Precip Rate Daily Precip Total
12:00 AM 77.9°F25.5°C 77.7°F25.4°C 99% 1.6 mph SSW2.6 kmh SSW 5.4 mph8.7 kmh 29.97 in1014.9 mb 0.00 in0.0 mm 0.00 in0.0 mm 0.00 in0.0 mm
12:15 AM 77.9°F25.5°C 77.7°F25.4°C 99% 0.7 mph S1.1 kmh S 4.5 mph7.2 kmh 29.97 in1014.9 mb 0.00 in0.0 mm 0.00 in0.0 mm 0.00 in0.0 mm
12:30 AM 77.9°F25.5°C 77.7°F25.4°C 99% 0.7 mph SSE1.1 kmh SSE 5.4 mph8.7 kmh 29.96 in1014.6 mb 0.00 in0.0 mm 0.00 in0.0 mm 0.00 in0.0 mm
12:45 AM 77.9°F25.5°C 77.7°F25.4°C 99% 1.6 mph SSE2.6 kmh SSE 5.4 mph8.7 kmh 29.96 in1014.6 mb 0.00 in0.0 mm 0.00 in0.0 mm 0.00 in0.0 mm
01:00 AM 77.9°F25.5°C 77.7°F25.4°C 99% 0.7 mph S1.1 kmh S 5.4 mph8.7 kmh 29.96 in1014.6 mb 0.00 in0.0 mm 0.00 in0.0 mm 0.00 in0.0 mm
01:15 AM 77.9°F25.5°C 77.7°F25.4°C 99% 3.1 mph S5.0 kmh S 5.4 mph8.7 kmh 29.96 in1014.6 mb 0.00 in0.0 mm 0.00 in0.0 mm 0.00 in0.0 mm
01:30 AM 77.9°F25.5°C 77.7°F25.4°C 99% 1.6 mph S2.6 kmh S 5.4 mph8.7 kmh 29.95 in1014.2 mb 0.00 in0.0 mm 0.00 in0.0 mm 0.00 in0.0 mm
01:45 AM 77.9°F25.5°C 77.7°F25.4°C 99% 1.6 mph S2.6 kmh S 4.5 mph7.2 kmh 29.96 in1014.6 mb 0.00 in0.0 mm 0.00 in0.0 mm 0.00 in0.0 mm
02:00 AM 77.9°F25.5°C 77.7°F25.4°C 99% 1.6 mph S2.6 kmh S 6.0 mph9.7 kmh 29.96 in1014.6 mb 0.00 in0.0 mm 0.00 in0.0 mm 0.00 in0.0 mm
02:15 AM 77.9°F25.5°C 77.7°F25.4°C 99% 2.2 mph S3.5 kmh S 6.9 mph11.1 kmh 29.95 in1014.2 mb 0.00 in0.0 mm 0.00 in0.0 mm 0.00 in0.0 mm
02:30 AM 77.7°F25.4°C 77.5°F25.3°C 99% 1.6 mph S2.6 kmh S 4.5 mph7.2 kmh 29.96 in1014.6 mb 0.00 in0.0 mm 0.00 in0.0 mm 0.00 in0.0 mm
02:45 AM 77.7°F25.4°C 77.5°F25.3°C 99% 3.1 mph S5.0 kmh S 7.6 mph12.2 kmh 29.96 in1014.6 mb 0.00 in0.0 mm 0.00 in0.0 mm 0.00 in0.0 mm
03:00 AM 77.7°F25.4°C 77.5°F25.3°C 99% 1.6 mph S2.6 kmh S 5.4 mph8.7 kmh 29.96 in1014.6 mb 0.00 in0.0 mm 0.00 in0.0 mm 0.00 in0.0 mm
03:15 AM 77.5°F25.3°C 77.3°F25.2°C 99% 0.7 mph SE1.1 kmh SE 5.4 mph8.7 kmh 29.97 in1014.9 mb 0.00 in0.0 mm 0.00 in0.0 mm 0.00 in0.0 mm
03:30 AM 77.4°F25.2°C 77.1°F25.1°C 99% 1.6 mph SSE2.6 kmh SSE 5.4 mph8.7 kmh 29.96 in1014.6 mb 0.00 in0.0 mm 0.00 in0.0 mm 0.00 in0.0 mm
03:45 AM 77.2°F25.1°C 76.9°F24.9°C 99% 2.2 mph S3.5 kmh S 4.5 mph7.2 kmh 29.96 in1014.6 mb 0.00 in0.0 mm 0.00 in0.0 mm 0.00 in0.0 mm
04:00 AM 77.2°F25.1°C 76.9°F24.9°C 99% 2.2 mph S3.5 kmh S 4.5 mph7.2 kmh 29.96 in1014.6 mb 0.00 in0.0 mm 0.00 in0.0 mm 0.00 in0.0 mm
04:15 AM 77.2°F25.1°C 76.9°F24.9°C 99% 1.6 mph S2.6 kmh S 4.5 mph7.2 kmh 29.97 in1014.9 mb 0.00 in0.0 mm 0.00 in0.0 mm 0.00 in0.0 mm
04:30 AM 77.0°F25.0°C 76.8°F24.9°C 99% 1.6 mph S2.6 kmh S 4.5 mph7.2 kmh 29.97 in1014.9 mb 0.00 in0.0 mm 0.00 in0.0 mm 0.00 in0.0 mm
04:45 AM 77.0°F25.0°C 76.8°F24.9°C 99% 0.7 mph S1.1 kmh S 4.5 mph7.2 kmh 29.97 in1014.9 mb 0.00 in0.0 mm 0.00 in0.0 mm 0.00 in0.0 mm
05:00 AM 76.8°F24.9°C 76.6°F24.8°C 99% 1.6 mph SSE2.6 kmh SSE 4.5 mph7.2 kmh 29.96 in1014.6 mb 0.00 in0.0 mm 0.00 in0.0 mm 0.00 in0.0 mm
05:15 AM 76.8°F24.9°C 76.6°F24.8°C 99% Calm Calm 4.5 mph7.2 kmh 29.96 in1014.6 mb 0.00 in0.0 mm 0.00 in0.0 mm 0.00 in0.0 mm
05:30 AM 77.2°F25.1°C 76.9°F24.9°C 99% 0.7 mph S1.1 kmh S 4.5 mph7.2 kmh 29.96 in1014.6 mb 0.00 in0.0 mm 0.00 in0.0 mm 0.00 in0.0 mm
05:45 AM 77.4°F25.2°C 77.1°F25.1°C 99% 2.2 mph S3.5 kmh S 6.0 mph9.7 kmh 29.95 in1014.2 mb 0.00 in0.0 mm 0.00 in0.0 mm 0.00 in0.0 mm
06:00 AM 77.7°F25.4°C 77.5°F25.3°C 99% 2.2 mph S3.5 kmh S 7.6 mph12.2 kmh 29.96 in1014.6 mb 0.00 in0.0 mm 0.00 in0.0 mm 0.00 in0.0 mm
06:15 AM 78.3°F25.7°C 78.0°F25.6°C 99% 0.7 mph S1.1 kmh S 8.3 mph13.4 kmh 29.96 in1014.6 mb 0.00 in0.0 mm 0.00 in0.0 mm 0.00 in0.0 mm
06:30 AM 78.6°F25.9°C 78.4°F25.8°C 99% 3.1 mph SSW5.0 kmh SSW 9.2 mph14.8 kmh 29.96 in1014.6 mb 0.00 in0.0 mm 0.00 in0.0 mm 0.00 in0.0 mm
06:45 AM 79.2°F26.2°C 78.9°F26.1°C 99% 1.6 mph S2.6 kmh S 7.6 mph12.2 kmh 29.97 in1014.9 mb 0.00 in0.0 mm 0.00 in0.0 mm 0.00 in0.0 mm
07:00 AM 80.1°F26.7°C 79.8°F26.6°C 99% 3.1 mph S5.0 kmh S 9.8 mph15.8 kmh 29.98 in1015.2 mb 0.00 in0.0 mm 0.00 in0.0 mm 0.00 in0.0 mm
07:15 AM 80.6°F27.0°C 80.4°F26.9°C 99% 3.1 mph SW5.0 kmh SW 9.2 mph14.8 kmh 29.98 in1015.2 mb 0.00 in0.0 mm 0.00 in0.0 mm 0.00 in0.0 mm
07:30 AM 82.0°F27.8°C 81.8°F27.7°C 99% 4.5 mph SSW7.2 kmh SSW 11.4 mph18.3 kmh 29.98 in1015.2 mb 0.00 in0.0 mm 0.00 in0.0 mm 0.00 in0.0 mm
07:45 AM 83.3°F28.5°C 81.8°F27.7°C 95% 4.5 mph SW7.2 kmh SW 14.5 mph23.3 kmh 29.98 in1015.2 mb 0.00 in0.0 mm 0.00 in0.0 mm 0.00 in0.0 mm
08:00 AM 84.4°F29.1°C 82.2°F27.9°C 93% 4.5 mph SW7.2 kmh SW 10.7 mph17.2 kmh 29.99 in1015.6 mb 0.00 in0.0 mm 0.00 in0.0 mm 0.00 in0.0 mm
08:15 AM 85.6°F29.8°C 82.8°F28.2°C 91% 3.1 mph SW5.0 kmh SW 14.5 mph23.3 kmh 29.99 in1015.6 mb 0.00 in0.0 mm 0.00 in0.0 mm 0.00 in0.0 mm
08:30 AM 86.7°F30.4°C 82.8°F28.2°C 88% 6.0 mph SW9.7 kmh SW 11.4 mph18.3 kmh 29.99 in1015.6 mb 0.00 in0.0 mm 0.00 in0.0 mm 0.00 in0.0 mm
08:45 AM 87.8°F31.0°C 83.5°F28.6°C 87% 4.5 mph SW7.2 kmh SW 13.0 mph20.9 kmh 29.99 in1015.6 mb 0.00 in0.0 mm 0.00 in0.0 mm 0.00 in0.0 mm
09:00 AM 88.7°F31.5°C 83.7°F28.7°C 85% 6.9 mph SW11.1 kmh SW 14.5 mph23.3 kmh 29.98 in1015.2 mb 0.00 in0.0 mm 0.00 in0.0 mm 0.00 in0.0 mm
09:15 AM 88.7°F31.5°C 83.0°F28.3°C 83% 6.9 mph WSW11.1 kmh WSW 15.9 mph25.6 kmh 29.98 in1015.2 mb 0.00 in0.0 mm 0.00 in0.0 mm 0.00 in0.0 mm
09:30 AM 89.4°F31.9°C 83.7°F28.7°C 83% 5.4 mph SW8.7 kmh SW 13.0 mph20.9 kmh 29.98 in1015.2 mb 0.00 in0.0 mm 0.00 in0.0 mm 0.00 in0.0 mm
09:45 AM 89.8°F32.1°C 83.6°F28.7°C 82% 6.9 mph WSW11.1 kmh WSW 15.2 mph24.5 kmh 29.99 in1015.6 mb 0.00 in0.0 mm 0.00 in0.0 mm 0.00 in0.0 mm
10:00 AM 90.1°F32.3°C 83.6°F28.7°C 81% 8.3 mph SW13.4 kmh SW 16.8 mph27.0 kmh 29.99 in1015.6 mb 0.00 in0.0 mm 0.00 in0.0 mm 0.00 in0.0 mm
10:15 AM 90.3°F32.4°C 82.2°F27.9°C 77% 9.8 mph SW15.8 kmh SW 17.4 mph28.0 kmh 29.99 in1015.6 mb 0.00 in0.0 mm 0.00 in0.0 mm 0.00 in0.0 mm
10:30 AM 91.0°F32.8°C 83.3°F28.5°C 78% 5.4 mph WSW8.7 kmh WSW 16.8 mph27.0 kmh 29.99 in1015.6 mb 0.00 in0.0 mm 0.00 in0.0 mm 0.00 in0.0 mm
10:45 AM 91.2°F32.9°C 83.5°F28.6°C 78% 4.5 mph SW7.2 kmh SW 13.6 mph21.9 kmh 29.98 in1015.2 mb 0.00 in0.0 mm 0.00 in0.0 mm 0.00 in0.0 mm
11:00 AM 92.7°F33.7°C 84.5°F29.2°C 77% 5.4 mph W8.7 kmh W 11.4 mph18.3 kmh 29.97 in1014.9 mb 0.00 in0.0 mm 0.00 in0.0 mm 0.00 in0.0 mm
11:15 AM 91.9°F33.3°C 83.8°F28.8°C 77% 4.5 mph NW7.2 kmh NW 10.7 mph17.2 kmh 29.97 in1014.9 mb 0.00 in0.0 mm 0.00 in0.0 mm 0.00 in0.0 mm
11:30 AM 90.7°F32.6°C 83.4°F28.6°C 79% 1.6 mph NNE2.6 kmh NNE 7.6 mph12.2 kmh 29.97 in1014.9 mb 0.00 in0.0 mm 0.00 in0.0 mm 0.00 in0.0 mm
11:45 AM 90.1°F32.3°C 83.2°F28.4°C 80% Calm Calm 9.2 mph14.8 kmh 29.96 in1014.6 mb 0.00 in0.0 mm 0.00 in0.0 mm 0.00 in0.0 mm
12:00 PM 91.8°F33.2°C 84.4°F29.1°C 79% Calm Calm 6.0 mph9.7 kmh 29.95 in1014.2 mb 0.00 in0.0 mm 0.00 in0.0 mm 0.00 in0.0 mm
12:15 PM 93.6°F34.2°C 85.0°F29.4°C 76% 1.6 mph NNW2.6 kmh NNW 3.8 mph6.1 kmh 29.95 in1014.2 mb 0.00 in0.0 mm 0.00 in0.0 mm 0.00 in0.0 mm
12:30 PM 94.3°F34.6°C 85.2°F29.6°C 75% 0.7 mph WNW1.1 kmh WNW 5.4 mph8.7 kmh 29.93 in1013.5 mb 0.00 in0.0 mm 0.00 in0.0 mm 0.00 in0.0 mm
12:45 PM 94.6°F34.8°C 84.7°F29.3°C 73% 1.6 mph SW2.6 kmh SW 6.0 mph9.7 kmh 29.93 in1013.5 mb 0.00 in0.0 mm 0.00 in0.0 mm 0.00 in0.0 mm
01:00 PM 94.3°F34.6°C 82.6°F28.1°C 69% 9.2 mph WSW14.8 kmh WSW 16.8 mph27.0 kmh 29.92 in1013.2 mb 0.00 in0.0 mm 0.00 in0.0 mm 0.00 in0.0 mm
01:15 PM 94.5°F34.7°C 82.8°F28.2°C 69% 6.9 mph SW11.1 kmh SW 15.2 mph24.5 kmh 29.91 in1012.9 mb 0.00 in0.0 mm 0.00 in0.0 mm 0.00 in0.0 mm
01:30 PM 94.1°F34.5°C 82.5°F28.1°C 69% 6.0 mph SW9.7 kmh SW 14.5 mph23.3 kmh 29.92 in1013.2 mb 0.00 in0.0 mm 0.00 in0.0 mm 0.00 in0.0 mm
01:45 PM 94.1°F34.5°C 82.5°F28.1°C 69% 5.4 mph SW8.7 kmh SW 17.4 mph28.0 kmh 29.91 in1012.9 mb 0.00 in0.0 mm 0.00 in0.0 mm 0.00 in0.0 mm
02:00 PM 94.1°F34.5°C 81.6°F27.6°C 67% 9.8 mph SW15.8 kmh SW 19.7 mph31.7 kmh 29.91 in1012.9 mb 0.00 in0.0 mm 0.00 in0.0 mm 0.00 in0.0 mm
02:15 PM 94.8°F34.9°C 83.2°F28.4°C 69% 3.8 mph SW6.1 kmh SW 17.4 mph28.0 kmh 29.90 in1012.5 mb 0.00 in0.0 mm 0.00 in0.0 mm 0.00 in0.0 mm
02:30 PM 94.8°F34.9°C 81.8°F27.7°C 66% 12.1 mph SW19.5 kmh SW 18.3 mph29.5 kmh 29.90 in1012.5 mb 0.00 in0.0 mm 0.00 in0.0 mm 0.00 in0.0 mm
02:45 PM 94.1°F34.5°C 82.0°F27.8°C 68% 6.0 mph SW9.7 kmh SW 17.4 mph28.0 kmh 29.89 in1012.2 mb 0.00 in0.0 mm 0.00 in0.0 mm 0.00 in0.0 mm
03:00 PM 94.5°F34.7°C 82.8°F28.2°C 69% 4.5 mph SW7.2 kmh SW 15.9 mph25.6 kmh 29.88 in1011.9 mb 0.00 in0.0 mm 0.00 in0.0 mm 0.00 in0.0 mm
03:15 PM 94.3°F34.6°C 82.6°F28.1°C 69% 6.0 mph SSW9.7 kmh SSW 16.8 mph27.0 kmh 29.88 in1011.9 mb 0.00 in0.0 mm 0.00 in0.0 mm 0.00 in0.0 mm
03:30 PM 94.5°F34.7°C 81.9°F27.7°C 67% 7.6 mph SW12.2 kmh SW 15.9 mph25.6 kmh 29.87 in1011.5 mb 0.00 in0.0 mm 0.00 in0.0 mm 0.00 in0.0 mm
03:45 PM 94.3°F34.6°C 81.3°F27.4°C 66% 4.5 mph SW7.2 kmh SW 17.4 mph28.0 kmh 29.86 in1011.2 mb 0.00 in0.0 mm 0.00 in0.0 mm 0.00 in0.0 mm
04:00 PM 93.7°F34.3°C 81.7°F27.6°C 68% 3.8 mph SW6.1 kmh SW 15.2 mph24.5 kmh 29.86 in1011.2 mb 0.00 in0.0 mm 0.00 in0.0 mm 0.00 in0.0 mm
04:15 PM 93.7°F34.3°C 80.8°F27.1°C 66% 7.6 mph SW12.2 kmh SW 18.3 mph29.5 kmh 29.85 in1010.8 mb 0.00 in0.0 mm 0.00 in0.0 mm 0.00 in0.0 mm
04:30 PM 93.0°F33.9°C 80.5°F26.9°C 67% 5.4 mph SW8.7 kmh SW 14.5 mph23.3 kmh 29.85 in1010.8 mb 0.00 in0.0 mm 0.00 in0.0 mm 0.00 in0.0 mm
04:45 PM 92.5°F33.6°C 81.8°F27.7°C 71% 1.6 mph WSW2.6 kmh WSW 10.7 mph17.2 kmh 29.86 in1011.2 mb 0.00 in0.0 mm 0.00 in0.0 mm 0.00 in0.0 mm
05:00 PM 91.6°F33.1°C 80.9°F27.2°C 71% 2.2 mph SW3.5 kmh SW 13.0 mph20.9 kmh 29.86 in1011.2 mb 0.00 in0.0 mm 0.00 in0.0 mm 0.00 in0.0 mm
05:15 PM 91.2°F32.9°C 80.1°F26.7°C 70% 6.9 mph SW11.1 kmh SW 13.0 mph20.9 kmh 29.86 in1011.2 mb 0.00 in0.0 mm 0.00 in0.0 mm 0.00 in0.0 mm
05:30 PM 90.9°F32.7°C 80.7°F27.1°C 72% 3.1 mph SW5.0 kmh SW 10.7 mph17.2 kmh 29.86 in1011.2 mb 0.00 in0.0 mm 0.00 in0.0 mm 0.00 in0.0 mm
05:45 PM 90.5°F32.5°C 80.3°F26.8°C 72% 3.8 mph WSW6.1 kmh WSW 8.3 mph13.4 kmh 29.87 in1011.5 mb 0.00 in0.0 mm 0.00 in0.0 mm 0.00 in0.0 mm
06:00 PM 90.1°F32.3°C 80.8°F27.1°C 74% 0.7 mph SW1.1 kmh SW 7.6 mph12.2 kmh 29.86 in1011.2 mb 0.00 in0.0 mm 0.00 in0.0 mm 0.00 in0.0 mm
06:15 PM 89.4°F31.9°C 79.7°F26.5°C 73% 4.5 mph WSW7.2 kmh WSW 11.4 mph18.3 kmh 29.87 in1011.5 mb 0.00 in0.0 mm 0.00 in0.0 mm 0.00 in0.0 mm
06:30 PM 88.7°F31.5°C 78.6°F25.9°C 72% 3.1 mph SW5.0 kmh SW 9.8 mph15.8 kmh 29.87 in1011.5 mb 0.00 in0.0 mm 0.00 in0.0 mm 0.00 in0.0 mm
06:45 PM 88.0°F31.1°C 78.3°F25.7°C 73% 2.2 mph WSW3.5 kmh WSW 6.9 mph11.1 kmh 29.88 in1011.9 mb 0.00 in0.0 mm 0.00 in0.0 mm 0.00 in0.0 mm
07:00 PM 87.3°F30.7°C 78.4°F25.8°C 75% 3.8 mph SW6.1 kmh SW 6.0 mph9.7 kmh 29.89 in1012.2 mb 0.00 in0.0 mm 0.00 in0.0 mm 0.00 in0.0 mm
07:15 PM 86.9°F30.5°C 78.1°F25.6°C 75% 2.2 mph WSW3.5 kmh WSW 7.6 mph12.2 kmh 29.90 in1012.5 mb 0.00 in0.0 mm 0.00 in0.0 mm 0.00 in0.0 mm
07:30 PM 86.7°F30.4°C 78.3°F25.7°C 76% 8.3 mph WSW13.4 kmh WSW 19.0 mph30.6 kmh 29.95 in1014.2 mb 0.00 in0.0 mm 0.00 in0.0 mm 0.00 in0.0 mm
07:45 PM 80.8°F27.1°C 72.6°F22.6°C 76% 7.6 mph N12.2 kmh N 18.3 mph29.5 kmh 29.95 in1014.2 mb 0.00 in0.0 mm 0.00 in0.0 mm 0.00 in0.0 mm
08:00 PM 74.8°F23.8°C 70.8°F21.6°C 87% 2.2 mph NNW3.5 kmh NNW 13.6 mph21.9 kmh 29.98 in1015.2 mb 0.21 in5.3 mm 0.28 in7.1 mm 0.21 in5.3 mm
08:15 PM 72.3°F22.4°C 70.2°F21.2°C 93% 0.7 mph N1.1 kmh N 9.8 mph15.8 kmh 29.98 in1015.2 mb 0.39 in9.9 mm 0.72 in18.3 mm 0.39 in9.9 mm
08:30 PM 71.1°F21.7°C 70.2°F21.2°C 97% 2.2 mph N3.5 kmh N 4.5 mph7.2 kmh 29.95 in1014.2 mb 0.51 in13.0 mm 0.48 in12.2 mm 0.51 in13.0 mm
08:45 PM 70.5°F21.4°C 70.3°F21.3°C 99% Calm Calm 3.1 mph5.0 kmh 29.96 in1014.6 mb 0.53 in13.5 mm 0.08 in2.0 mm 0.53 in13.5 mm
09:00 PM 70.0°F21.1°C 69.7°F20.9°C 99% 2.2 mph SSW3.5 kmh SSW 6.9 mph11.1 kmh 29.99 in1015.6 mb 0.34 in8.6 mm 0.00 in0.0 mm 0.59 in15.0 mm
09:15 PM 69.6°F20.9°C 69.4°F20.8°C 99% Calm Calm 3.1 mph5.0 kmh 29.94 in1013.9 mb 0.20 in5.1 mm 0.00 in0.0 mm 0.59 in15.0 mm
09:30 PM 69.4°F20.8°C 69.2°F20.7°C 99% 0.7 mph S1.1 kmh S 3.8 mph6.1 kmh 29.92 in1013.2 mb 0.08 in2.0 mm 0.00 in0.0 mm 0.59 in15.0 mm
09:45 PM 69.4°F20.8°C 69.2°F20.7°C 99% 1.6 mph SSE2.6 kmh SSE 5.4 mph8.7 kmh 29.93 in1013.5 mb 0.06 in1.5 mm 0.00 in0.0 mm 0.59 in15.0 mm
10:00 PM 69.3°F20.7°C 69.0°F20.6°C 99% 0.7 mph S1.1 kmh S 6.0 mph9.7 kmh 29.93 in1013.5 mb 0.00 in0.0 mm 0.00 in0.0 mm 0.59 in15.0 mm
10:15 PM 69.1°F20.6°C 68.8°F20.4°C 99% 1.6 mph SE2.6 kmh SE 6.0 mph9.7 kmh 29.91 in1012.9 mb 0.00 in0.0 mm 0.00 in0.0 mm 0.59 in15.0 mm
10:30 PM 69.1°F20.6°C 68.8°F20.4°C 99% 2.2 mph S3.5 kmh S 6.0 mph9.7 kmh 29.90 in1012.5 mb 0.00 in0.0 mm 0.00 in0.0 mm 0.59 in15.0 mm
10:45 PM 69.1°F20.6°C 68.8°F20.4°C 99% 2.2 mph S3.5 kmh S 7.6 mph12.2 kmh 29.89 in1012.2 mb 0.00 in0.0 mm 0.00 in0.0 mm 0.59 in15.0 mm
11:00 PM 69.1°F20.6°C 68.8°F20.4°C 99% 2.2 mph S3.5 kmh S 6.0 mph9.7 kmh 29.90 in1012.5 mb 0.00 in0.0 mm 0.00 in0.0 mm 0.53 in13.5 mm
11:15 PM 69.3°F20.7°C 69.0°F20.6°C 99% 2.2 mph S3.5 kmh S 8.3 mph13.4 kmh 29.90 in1012.5 mb 0.00 in0.0 mm 0.00 in0.0 mm 0.53 in13.5 mm
11:30 PM 69.4°F20.8°C 69.2°F20.7°C 99% 3.8 mph SSE6.1 kmh SSE 8.3 mph13.4 kmh 29.90 in1012.5 mb 0.00 in0.0 mm 0.00 in0.0 mm 0.53 in13.5 mm
11:45 PM 69.6°F20.9°C 69.4°F20.8°C 99% 5.4 mph SSE8.7 kmh SSE 11.4 mph18.3 kmh 29.89 in1012.2 mb 0.00 in0.0 mm 0.00 in0.0 mm 0.53 in13.5 mm